sensor_id;sensor_type;location;lat;lon;timestamp;temperature;humidity
55064;DHT22;40963;52.168;21.296;2022-07-19T00:00:33;17.40;99.90
55064;DHT22;40963;52.168;21.296;2022-07-19T00:02:59;17.30;99.90
55064;DHT22;40963;52.168;21.296;2022-07-19T00:05:24;17.30;99.90
55064;DHT22;40963;52.168;21.296;2022-07-19T00:07:51;17.30;99.90
55064;DHT22;40963;52.168;21.296;2022-07-19T00:10:19;17.30;99.90
55064;DHT22;40963;52.168;21.296;2022-07-19T00:12:46;17.30;99.90
55064;DHT22;40963;52.168;21.296;2022-07-19T00:15:13;17.30;99.90
55064;DHT22;40963;52.168;21.296;2022-07-19T00:17:41;17.30;99.90
55064;DHT22;40963;52.168;21.296;2022-07-19T00:20:08;17.30;99.90
55064;DHT22;40963;52.168;21.296;2022-07-19T00:22:34;17.30;99.90
55064;DHT22;40963;52.168;21.296;2022-07-19T00:25:00;17.30;99.90
55064;DHT22;40963;52.168;21.296;2022-07-19T00:27:26;17.20;99.90
55064;DHT22;40963;52.168;21.296;2022-07-19T00:29:51;17.30;99.90
55064;DHT22;40963;52.168;21.296;2022-07-19T00:32:17;17.20;99.90
55064;DHT22;40963;52.168;21.296;2022-07-19T00:34:42;17.20;99.90
55064;DHT22;40963;52.168;21.296;2022-07-19T00:37:08;17.20;99.90
55064;DHT22;40963;52.168;21.296;2022-07-19T00:39:34;17.30;99.90
55064;DHT22;40963;52.168;21.296;2022-07-19T00:41:59;17.30;99.90
55064;DHT22;40963;52.168;21.296;2022-07-19T00:44:25;17.30;99.90
55064;DHT22;40963;52.168;21.296;2022-07-19T00:46:51;17.40;99.90
55064;DHT22;40963;52.168;21.296;2022-07-19T00:49:17;17.40;99.90
55064;DHT22;40963;52.168;21.296;2022-07-19T00:51:44;17.40;99.90
55064;DHT22;40963;52.168;21.296;2022-07-19T00:54:12;17.40;99.90
55064;DHT22;40963;52.168;21.296;2022-07-19T00:56:38;17.40;99.90
55064;DHT22;40963;52.168;21.296;2022-07-19T00:59:08;17.40;99.90
55064;DHT22;40963;52.168;21.296;2022-07-19T01:01:33;17.40;99.90
55064;DHT22;40963;52.168;21.296;2022-07-19T01:03:59;17.40;99.90
55064;DHT22;40963;52.168;21.296;2022-07-19T01:06:25;17.40;99.90
55064;DHT22;40963;52.168;21.296;2022-07-19T01:08:51;17.40;99.90
55064;DHT22;40963;52.168;21.296;2022-07-19T01:11:16;17.40;99.90
55064;DHT22;40963;52.168;21.296;2022-07-19T01:13:42;17.30;99.90
55064;DHT22;40963;52.168;21.296;2022-07-19T01:16:08;17.30;99.90
55064;DHT22;40963;52.168;21.296;2022-07-19T01:18:34;17.30;99.90
55064;DHT22;40963;52.168;21.296;2022-07-19T01:21:01;17.30;99.90
55064;DHT22;40963;52.168;21.296;2022-07-19T01:23:28;17.20;99.90
55064;DHT22;40963;52.168;21.296;2022-07-19T01:25:54;17.20;99.90
55064;DHT22;40963;52.168;21.296;2022-07-19T01:28:20;17.20;99.90
55064;DHT22;40963;52.168;21.296;2022-07-19T01:30:45;17.10;99.90
55064;DHT22;40963;52.168;21.296;2022-07-19T01:33:11;17.10;99.90
55064;DHT22;40963;52.168;21.296;2022-07-19T01:35:37;17.10;99.90
55064;DHT22;40963;52.168;21.296;2022-07-19T01:38:02;17.10;99.90
55064;DHT22;40963;52.168;21.296;2022-07-19T01:40:28;17.10;99.90
55064;DHT22;40963;52.168;21.296;2022-07-19T01:42:54;17.00;99.90
55064;DHT22;40963;52.168;21.296;2022-07-19T01:45:21;17.00;99.90
55064;DHT22;40963;52.168;21.296;2022-07-19T01:47:47;17.00;99.90
55064;DHT22;40963;52.168;21.296;2022-07-19T01:50:14;17.00;99.90
55064;DHT22;40963;52.168;21.296;2022-07-19T01:52:41;17.00;99.90
55064;DHT22;40963;52.168;21.296;2022-07-19T01:55:07;17.00;99.90
55064;DHT22;40963;52.168;21.296;2022-07-19T01:57:33;17.00;99.90
55064;DHT22;40963;52.168;21.296;2022-07-19T01:59:58;17.00;99.90
55064;DHT22;40963;52.168;21.296;2022-07-19T02:02:24;17.00;99.90
55064;DHT22;40963;52.168;21.296;2022-07-19T02:04:50;17.00;99.90
55064;DHT22;40963;52.168;21.296;2022-07-19T02:07:16;17.00;99.90
55064;DHT22;40963;52.168;21.296;2022-07-19T02:09:42;16.90;99.90
55064;DHT22;40963;52.168;21.296;2022-07-19T02:12:07;16.90;99.90
55064;DHT22;40963;52.168;21.296;2022-07-19T02:14:33;16.90;99.90
55064;DHT22;40963;52.168;21.296;2022-07-19T02:16:59;16.90;99.90
55064;DHT22;40963;52.168;21.296;2022-07-19T02:19:25;16.90;99.90
55064;DHT22;40963;52.168;21.296;2022-07-19T02:21:50;16.90;99.90
55064;DHT22;40963;52.168;21.296;2022-07-19T02:24:16;16.90;99.90
55064;DHT22;40963;52.168;21.296;2022-07-19T02:26:42;16.90;99.90
55064;DHT22;40963;52.168;21.296;2022-07-19T02:29:08;16.80;99.90
55064;DHT22;40963;52.168;21.296;2022-07-19T02:31:34;16.90;99.90
55064;DHT22;40963;52.168;21.296;2022-07-19T02:34:00;16.80;99.90
55064;DHT22;40963;52.168;21.296;2022-07-19T02:36:26;16.80;99.90
55064;DHT22;40963;52.168;21.296;2022-07-19T02:38:51;16.80;99.90
55064;DHT22;40963;52.168;21.296;2022-07-19T02:41:17;16.80;99.90
55064;DHT22;40963;52.168;21.296;2022-07-19T02:43:43;16.80;99.90
55064;DHT22;40963;52.168;21.296;2022-07-19T02:46:09;16.90;99.90
55064;DHT22;40963;52.168;21.296;2022-07-19T02:48:35;16.80;99.90
55064;DHT22;40963;52.168;21.296;2022-07-19T02:51:01;16.80;99.90
55064;DHT22;40963;52.168;21.296;2022-07-19T02:53:27;16.80;99.90
55064;DHT22;40963;52.168;21.296;2022-07-19T02:55:52;16.80;99.90
55064;DHT22;40963;52.168;21.296;2022-07-19T02:58:18;16.80;99.90
55064;DHT22;40963;52.168;21.296;2022-07-19T03:00:44;16.80;99.90
55064;DHT22;40963;52.168;21.296;2022-07-19T03:03:10;16.80;99.90
55064;DHT22;40963;52.168;21.296;2022-07-19T03:05:55;16.80;99.90
55064;DHT22;40963;52.168;21.296;2022-07-19T03:08:20;16.80;99.90
55064;DHT22;40963;52.168;21.296;2022-07-19T03:10:46;16.80;99.90
55064;DHT22;40963;52.168;21.296;2022-07-19T03:13:12;16.80;99.90
55064;DHT22;40963;52.168;21.296;2022-07-19T03:15:37;16.80;99.90
55064;DHT22;40963;52.168;21.296;2022-07-19T03:18:04;16.80;99.90
55064;DHT22;40963;52.168;21.296;2022-07-19T03:20:30;16.90;99.90
55064;DHT22;40963;52.168;21.296;2022-07-19T03:22:55;16.80;99.90
55064;DHT22;40963;52.168;21.296;2022-07-19T03:25:21;16.90;99.90
55064;DHT22;40963;52.168;21.296;2022-07-19T03:27:47;16.90;99.90
55064;DHT22;40963;52.168;21.296;2022-07-19T03:30:14;16.90;99.90
55064;DHT22;40963;52.168;21.296;2022-07-19T03:32:39;16.90;99.90
55064;DHT22;40963;52.168;21.296;2022-07-19T03:35:06;16.90;99.90
55064;DHT22;40963;52.168;21.296;2022-07-19T03:37:32;16.90;99.90
55064;DHT22;40963;52.168;21.296;2022-07-19T03:39:57;16.90;99.90
55064;DHT22;40963;52.168;21.296;2022-07-19T03:42:23;16.90;99.90
55064;DHT22;40963;52.168;21.296;2022-07-19T03:44:49;16.90;99.90
55064;DHT22;40963;52.168;21.296;2022-07-19T03:47:15;16.90;99.90
55064;DHT22;40963;52.168;21.296;2022-07-19T03:49:41;16.90;99.90
55064;DHT22;40963;52.168;21.296;2022-07-19T03:52:06;16.90;99.90
55064;DHT22;40963;52.168;21.296;2022-07-19T03:54:32;16.90;99.90
55064;DHT22;40963;52.168;21.296;2022-07-19T03:56:58;16.90;99.90
55064;DHT22;40963;52.168;21.296;2022-07-19T03:59:24;16.90;99.90
55064;DHT22;40963;52.168;21.296;2022-07-19T04:01:50;17.00;99.90
55064;DHT22;40963;52.168;21.296;2022-07-19T04:04:16;17.00;99.90
55064;DHT22;40963;52.168;21.296;2022-07-19T04:06:42;17.00;99.90
55064;DHT22;40963;52.168;21.296;2022-07-19T04:09:07;17.00;99.90
55064;DHT22;40963;52.168;21.296;2022-07-19T04:11:33;17.00;99.90
55064;DHT22;40963;52.168;21.296;2022-07-19T04:13:59;17.00;99.90
55064;DHT22;40963;52.168;21.296;2022-07-19T04:16:24;17.10;99.90
55064;DHT22;40963;52.168;21.296;2022-07-19T04:18:50;17.00;99.90
55064;DHT22;40963;52.168;21.296;2022-07-19T04:21:16;17.10;99.90
55064;DHT22;40963;52.168;21.296;2022-07-19T04:23:41;17.10;99.90
55064;DHT22;40963;52.168;21.296;2022-07-19T04:26:07;17.10;99.90
55064;DHT22;40963;52.168;21.296;2022-07-19T04:28:33;17.10;99.90
55064;DHT22;40963;52.168;21.296;2022-07-19T04:30:58;17.10;99.90
55064;DHT22;40963;52.168;21.296;2022-07-19T04:33:24;17.10;99.90
55064;DHT22;40963;52.168;21.296;2022-07-19T04:35:50;17.10;99.90
55064;DHT22;40963;52.168;21.296;2022-07-19T04:38:17;17.20;99.90
55064;DHT22;40963;52.168;21.296;2022-07-19T04:40:42;17.20;99.90
55064;DHT22;40963;52.168;21.296;2022-07-19T04:43:08;17.20;99.90
55064;DHT22;40963;52.168;21.296;2022-07-19T04:45:34;17.20;99.90
55064;DHT22;40963;52.168;21.296;2022-07-19T04:47:59;17.30;99.90
55064;DHT22;40963;52.168;21.296;2022-07-19T04:50:25;17.30;99.90
55064;DHT22;40963;52.168;21.296;2022-07-19T04:52:51;17.30;99.90
55064;DHT22;40963;52.168;21.296;2022-07-19T04:55:16;17.40;99.90
55064;DHT22;40963;52.168;21.296;2022-07-19T04:57:42;17.40;99.90
55064;DHT22;40963;52.168;21.296;2022-07-19T05:00:09;17.50;99.90
55064;DHT22;40963;52.168;21.296;2022-07-19T05:02:36;17.50;99.90
55064;DHT22;40963;52.168;21.296;2022-07-19T05:05:03;17.60;99.90
55064;DHT22;40963;52.168;21.296;2022-07-19T05:07:28;17.60;99.90
55064;DHT22;40963;52.168;21.296;2022-07-19T05:09:54;17.70;99.90
55064;DHT22;40963;52.168;21.296;2022-07-19T05:12:20;17.70;99.90
55064;DHT22;40963;52.168;21.296;2022-07-19T05:14:46;17.80;99.90
55064;DHT22;40963;52.168;21.296;2022-07-19T05:17:11;17.90;99.90
55064;DHT22;40963;52.168;21.296;2022-07-19T05:19:37;17.90;99.90
55064;DHT22;40963;52.168;21.296;2022-07-19T05:22:03;17.90;99.90
55064;DHT22;40963;52.168;21.296;2022-07-19T05:24:29;18.00;99.90
55064;DHT22;40963;52.168;21.296;2022-07-19T05:26:54;18.10;99.90
55064;DHT22;40963;52.168;21.296;2022-07-19T05:29:20;18.10;99.90
55064;DHT22;40963;52.168;21.296;2022-07-19T05:31:46;18.20;99.90
55064;DHT22;40963;52.168;21.296;2022-07-19T05:34:11;18.20;99.90
55064;DHT22;40963;52.168;21.296;2022-07-19T05:36:37;18.30;99.90
55064;DHT22;40963;52.168;21.296;2022-07-19T05:39:03;18.30;99.90
55064;DHT22;40963;52.168;21.296;2022-07-19T05:41:29;18.40;99.90
55064;DHT22;40963;52.168;21.296;2022-07-19T05:43:55;18.40;99.90
55064;DHT22;40963;52.168;21.296;2022-07-19T05:46:20;18.50;99.90
55064;DHT22;40963;52.168;21.296;2022-07-19T05:48:46;18.50;99.90
55064;DHT22;40963;52.168;21.296;2022-07-19T05:51:12;18.60;99.90
55064;DHT22;40963;52.168;21.296;2022-07-19T05:53:38;18.60;99.90
55064;DHT22;40963;52.168;21.296;2022-07-19T05:56:05;18.70;99.90
55064;DHT22;40963;52.168;21.296;2022-07-19T05:58:31;18.80;99.90
55064;DHT22;40963;52.168;21.296;2022-07-19T06:00:57;18.90;99.90
55064;DHT22;40963;52.168;21.296;2022-07-19T06:03:57;18.90;99.90
55064;DHT22;40963;52.168;21.296;2022-07-19T06:06:25;18.90;99.90
55064;DHT22;40963;52.168;21.296;2022-07-19T06:08:51;18.90;99.90
55064;DHT22;40963;52.168;21.296;2022-07-19T06:11:18;19.00;99.90
55064;DHT22;40963;52.168;21.296;2022-07-19T06:13:46;19.10;99.90
55064;DHT22;40963;52.168;21.296;2022-07-19T06:16:11;19.20;99.90
55064;DHT22;40963;52.168;21.296;2022-07-19T06:18:38;19.20;99.90
55064;DHT22;40963;52.168;21.296;2022-07-19T06:21:14;19.30;99.90
55064;DHT22;40963;52.168;21.296;2022-07-19T06:23:41;19.40;99.80
55064;DHT22;40963;52.168;21.296;2022-07-19T06:26:07;19.40;99.50
55064;DHT22;40963;52.168;21.296;2022-07-19T06:28:33;19.50;99.30
55064;DHT22;40963;52.168;21.296;2022-07-19T06:30:59;19.50;99.00
55064;DHT22;40963;52.168;21.296;2022-07-19T06:33:25;19.60;98.80
55064;DHT22;40963;52.168;21.296;2022-07-19T06:35:51;19.60;98.60
55064;DHT22;40963;52.168;21.296;2022-07-19T06:38:17;19.70;98.40
55064;DHT22;40963;52.168;21.296;2022-07-19T06:40:43;19.80;98.30
55064;DHT22;40963;52.168;21.296;2022-07-19T06:43:09;19.90;98.20
55064;DHT22;40963;52.168;21.296;2022-07-19T06:45:35;19.90;97.90
55064;DHT22;40963;52.168;21.296;2022-07-19T06:48:01;20.00;97.80
55064;DHT22;40963;52.168;21.296;2022-07-19T06:50:27;20.00;97.60
55064;DHT22;40963;52.168;21.296;2022-07-19T06:52:53;20.20;97.50
55064;DHT22;40963;52.168;21.296;2022-07-19T06:55:19;20.20;97.30
55064;DHT22;40963;52.168;21.296;2022-07-19T06:57:44;20.30;97.10
55064;DHT22;40963;52.168;21.296;2022-07-19T07:00:11;20.40;96.80
55064;DHT22;40963;52.168;21.296;2022-07-19T07:02:38;20.50;96.60
55064;DHT22;40963;52.168;21.296;2022-07-19T07:05:05;20.50;96.20
55064;DHT22;40963;52.168;21.296;2022-07-19T07:07:31;20.60;96.00
55064;DHT22;40963;52.168;21.296;2022-07-19T07:09:57;20.60;95.70
55064;DHT22;40963;52.168;21.296;2022-07-19T07:12:22;20.60;95.50
55064;DHT22;40963;52.168;21.296;2022-07-19T07:14:48;20.70;95.40
55064;DHT22;40963;52.168;21.296;2022-07-19T07:17:13;20.70;95.30
55064;DHT22;40963;52.168;21.296;2022-07-19T07:19:39;20.80;95.20
55064;DHT22;40963;52.168;21.296;2022-07-19T07:22:05;20.90;95.20
55064;DHT22;40963;52.168;21.296;2022-07-19T07:24:30;20.90;95.10
55064;DHT22;40963;52.168;21.296;2022-07-19T07:26:56;21.00;94.70
55064;DHT22;40963;52.168;21.296;2022-07-19T07:29:22;21.00;94.30
55064;DHT22;40963;52.168;21.296;2022-07-19T07:31:47;21.00;93.90
55064;DHT22;40963;52.168;21.296;2022-07-19T07:34:13;21.00;93.80
55064;DHT22;40963;52.168;21.296;2022-07-19T07:36:39;21.10;93.90
55064;DHT22;40963;52.168;21.296;2022-07-19T07:39:04;21.10;93.70
55064;DHT22;40963;52.168;21.296;2022-07-19T07:41:30;21.10;93.30
55064;DHT22;40963;52.168;21.296;2022-07-19T07:43:56;21.10;92.90
55064;DHT22;40963;52.168;21.296;2022-07-19T07:46:21;21.20;92.90
55064;DHT22;40963;52.168;21.296;2022-07-19T07:48:47;21.20;92.70
55064;DHT22;40963;52.168;21.296;2022-07-19T07:51:13;21.30;92.60
55064;DHT22;40963;52.168;21.296;2022-07-19T07:53:38;21.30;92.40
55064;DHT22;40963;52.168;21.296;2022-07-19T07:56:04;21.40;92.30
55064;DHT22;40963;52.168;21.296;2022-07-19T07:58:30;21.40;91.90
55064;DHT22;40963;52.168;21.296;2022-07-19T08:00:56;21.50;91.80
55064;DHT22;40963;52.168;21.296;2022-07-19T08:03:21;21.50;91.70
55064;DHT22;40963;52.168;21.296;2022-07-19T08:05:47;21.60;91.70
55064;DHT22;40963;52.168;21.296;2022-07-19T08:08:17;21.80;91.70
55064;DHT22;40963;52.168;21.296;2022-07-19T08:10:43;21.80;91.50
55064;DHT22;40963;52.168;21.296;2022-07-19T08:13:09;21.90;91.20
55064;DHT22;40963;52.168;21.296;2022-07-19T08:15:36;21.90;90.80
55064;DHT22;40963;52.168;21.296;2022-07-19T08:18:02;21.90;90.40
55064;DHT22;40963;52.168;21.296;2022-07-19T08:20:28;22.00;90.30
55064;DHT22;40963;52.168;21.296;2022-07-19T08:22:54;22.00;89.80
55064;DHT22;40963;52.168;21.296;2022-07-19T08:25:19;22.00;89.20
55064;DHT22;40963;52.168;21.296;2022-07-19T08:27:45;22.00;88.70
55064;DHT22;40963;52.168;21.296;2022-07-19T08:30:11;22.00;88.40
55064;DHT22;40963;52.168;21.296;2022-07-19T08:32:38;22.10;88.60
55064;DHT22;40963;52.168;21.296;2022-07-19T08:35:05;22.10;88.20
55064;DHT22;40963;52.168;21.296;2022-07-19T08:37:31;22.20;87.50
55064;DHT22;40963;52.168;21.296;2022-07-19T08:39:56;22.20;86.90
55064;DHT22;40963;52.168;21.296;2022-07-19T08:42:22;22.20;86.70
55064;DHT22;40963;52.168;21.296;2022-07-19T08:44:51;22.20;86.60
55064;DHT22;40963;52.168;21.296;2022-07-19T08:47:19;22.30;86.90
55064;DHT22;40963;52.168;21.296;2022-07-19T08:49:45;22.40;87.50
55064;DHT22;40963;52.168;21.296;2022-07-19T08:52:12;22.30;86.20
55064;DHT22;40963;52.168;21.296;2022-07-19T08:54:38;22.30;85.20
55064;DHT22;40963;52.168;21.296;2022-07-19T08:57:05;22.30;84.70
55064;DHT22;40963;52.168;21.296;2022-07-19T08:59:49;22.40;84.80
55064;DHT22;40963;52.168;21.296;2022-07-19T09:02:15;22.50;84.20
55064;DHT22;40963;52.168;21.296;2022-07-19T09:04:40;22.60;82.60
55064;DHT22;40963;52.168;21.296;2022-07-19T09:07:06;22.60;81.60
55064;DHT22;40963;52.168;21.296;2022-07-19T09:09:35;22.70;80.50
55064;DHT22;40963;52.168;21.296;2022-07-19T09:12:03;22.80;79.00
55064;DHT22;40963;52.168;21.296;2022-07-19T09:14:34;22.80;78.10
55064;DHT22;40963;52.168;21.296;2022-07-19T09:17:07;22.90;77.60
55064;DHT22;40963;52.168;21.296;2022-07-19T09:19:38;23.10;78.10
55064;DHT22;40963;52.168;21.296;2022-07-19T09:22:06;23.20;77.60
55064;DHT22;40963;52.168;21.296;2022-07-19T09:24:37;23.30;77.30
55064;DHT22;40963;52.168;21.296;2022-07-19T09:27:07;23.40;77.50
55064;DHT22;40963;52.168;21.296;2022-07-19T09:29:35;23.60;76.80
55064;DHT22;40963;52.168;21.296;2022-07-19T09:32:05;23.70;76.70
55064;DHT22;40963;52.168;21.296;2022-07-19T09:34:52;23.90;75.90
55064;DHT22;40963;52.168;21.296;2022-07-19T09:37:22;24.10;73.40
55064;DHT22;40963;52.168;21.296;2022-07-19T09:39:50;24.20;71.90
55064;DHT22;40963;52.168;21.296;2022-07-19T09:42:40;24.20;69.90
55064;DHT22;40963;52.168;21.296;2022-07-19T09:45:11;24.40;69.50
55064;DHT22;40963;52.168;21.296;2022-07-19T09:47:43;24.50;69.30
55064;DHT22;40963;52.168;21.296;2022-07-19T09:50:11;24.70;68.60
55064;DHT22;40963;52.168;21.296;2022-07-19T09:52:40;24.70;67.40
55064;DHT22;40963;52.168;21.296;2022-07-19T09:55:07;24.80;66.90
55064;DHT22;40963;52.168;21.296;2022-07-19T09:57:44;24.90;66.40
55064;DHT22;40963;52.168;21.296;2022-07-19T10:00:11;25.00;66.30
55064;DHT22;40963;52.168;21.296;2022-07-19T10:02:39;25.00;65.00
55064;DHT22;40963;52.168;21.296;2022-07-19T10:05:06;25.10;64.10
55064;DHT22;40963;52.168;21.296;2022-07-19T10:07:33;25.20;63.20
55064;DHT22;40963;52.168;21.296;2022-07-19T10:10:04;25.20;61.80
55064;DHT22;40963;52.168;21.296;2022-07-19T10:12:31;25.30;60.50
55064;DHT22;40963;52.168;21.296;2022-07-19T10:14:57;25.40;60.00
55064;DHT22;40963;52.168;21.296;2022-07-19T10:17:29;25.50;60.00
55064;DHT22;40963;52.168;21.296;2022-07-19T10:19:55;25.50;59.90
55064;DHT22;40963;52.168;21.296;2022-07-19T10:22:23;25.50;59.70
55064;DHT22;40963;52.168;21.296;2022-07-19T10:24:59;25.60;59.60
55064;DHT22;40963;52.168;21.296;2022-07-19T10:29:51;25.60;58.50
55064;DHT22;40963;52.168;21.296;2022-07-19T10:32:17;25.60;58.30
55064;DHT22;40963;52.168;21.296;2022-07-19T10:34:44;25.70;57.60
55064;DHT22;40963;52.168;21.296;2022-07-19T10:37:13;25.70;57.70
55064;DHT22;40963;52.168;21.296;2022-07-19T10:39:39;25.90;57.60
55064;DHT22;40963;52.168;21.296;2022-07-19T10:42:22;25.90;56.20
55064;DHT22;40963;52.168;21.296;2022-07-19T10:47:23;26.10;54.60
55064;DHT22;40963;52.168;21.296;2022-07-19T10:50:14;26.20;54.10
55064;DHT22;40963;52.168;21.296;2022-07-19T10:52:42;26.30;53.90
55064;DHT22;40963;52.168;21.296;2022-07-19T10:57:52;26.50;53.40
55064;DHT22;40963;52.168;21.296;2022-07-19T11:00:22;26.60;53.40
55064;DHT22;40963;52.168;21.296;2022-07-19T11:02:50;26.60;53.70
55064;DHT22;40963;52.168;21.296;2022-07-19T11:05:29;26.60;53.50
55064;DHT22;40963;52.168;21.296;2022-07-19T11:07:57;26.60;53.80
55064;DHT22;40963;52.168;21.296;2022-07-19T11:10:29;26.60;53.90
55064;DHT22;40963;52.168;21.296;2022-07-19T11:12:57;26.70;53.70
55064;DHT22;40963;52.168;21.296;2022-07-19T11:15:24;26.80;53.60
55064;DHT22;40963;52.168;21.296;2022-07-19T11:17:55;26.80;52.80
55064;DHT22;40963;52.168;21.296;2022-07-19T11:20:26;26.80;53.00
55064;DHT22;40963;52.168;21.296;2022-07-19T11:22:53;26.90;53.50
55064;DHT22;40963;52.168;21.296;2022-07-19T11:25:29;26.90;53.00
55064;DHT22;40963;52.168;21.296;2022-07-19T11:27:55;26.90;53.30
55064;DHT22;40963;52.168;21.296;2022-07-19T11:30:22;27.00;53.10
55064;DHT22;40963;52.168;21.296;2022-07-19T11:33:03;27.00;52.70
55064;DHT22;40963;52.168;21.296;2022-07-19T11:35:30;27.10;52.90
55064;DHT22;40963;52.168;21.296;2022-07-19T11:37:58;27.20;52.80
55064;DHT22;40963;52.168;21.296;2022-07-19T11:40:25;27.30;52.70
55064;DHT22;40963;52.168;21.296;2022-07-19T11:42:57;27.30;52.10
55064;DHT22;40963;52.168;21.296;2022-07-19T11:45:26;27.30;52.00
55064;DHT22;40963;52.168;21.296;2022-07-19T11:47:56;27.40;52.40
55064;DHT22;40963;52.168;21.296;2022-07-19T11:50:27;27.40;52.50
55064;DHT22;40963;52.168;21.296;2022-07-19T11:55:22;27.60;52.40
55064;DHT22;40963;52.168;21.296;2022-07-19T11:57:48;27.60;52.00
55064;DHT22;40963;52.168;21.296;2022-07-19T12:00:15;27.60;51.40
55064;DHT22;40963;52.168;21.296;2022-07-19T12:05:19;27.70;51.30
55064;DHT22;40963;52.168;21.296;2022-07-19T12:07:49;27.70;51.90
55064;DHT22;40963;52.168;21.296;2022-07-19T12:13:00;28.00;52.40
55064;DHT22;40963;52.168;21.296;2022-07-19T12:15:26;27.90;51.90
55064;DHT22;40963;52.168;21.296;2022-07-19T12:17:56;28.00;51.80
55064;DHT22;40963;52.168;21.296;2022-07-19T12:20:22;28.00;51.30
55064;DHT22;40963;52.168;21.296;2022-07-19T12:22:48;28.00;51.20
55064;DHT22;40963;52.168;21.296;2022-07-19T12:25:13;28.00;51.50
55064;DHT22;40963;52.168;21.296;2022-07-19T12:27:40;28.00;51.40
55064;DHT22;40963;52.168;21.296;2022-07-19T12:30:07;28.00;51.40
55064;DHT22;40963;52.168;21.296;2022-07-19T12:32:43;28.00;51.50
55064;DHT22;40963;52.168;21.296;2022-07-19T12:35:14;27.90;51.30
55064;DHT22;40963;52.168;21.296;2022-07-19T12:37:45;27.90;51.70
55064;DHT22;40963;52.168;21.296;2022-07-19T12:40:25;27.90;51.90
55064;DHT22;40963;52.168;21.296;2022-07-19T12:42:58;27.90;51.70
55064;DHT22;40963;52.168;21.296;2022-07-19T12:45:44;27.80;51.20
55064;DHT22;40963;52.168;21.296;2022-07-19T12:48:13;27.70;51.10
55064;DHT22;40963;52.168;21.296;2022-07-19T12:50:44;27.60;51.70
55064;DHT22;40963;52.168;21.296;2022-07-19T12:53:12;27.60;52.60
55064;DHT22;40963;52.168;21.296;2022-07-19T12:55:41;27.60;52.10
55064;DHT22;40963;52.168;21.296;2022-07-19T12:58:12;27.60;51.30
55064;DHT22;40963;52.168;21.296;2022-07-19T13:00:39;27.60;51.10
55064;DHT22;40963;52.168;21.296;2022-07-19T13:03:07;27.60;52.20
55064;DHT22;40963;52.168;21.296;2022-07-19T13:05:34;27.50;53.10
55064;DHT22;40963;52.168;21.296;2022-07-19T13:08:00;27.50;53.20
55064;DHT22;40963;52.168;21.296;2022-07-19T13:10:27;27.50;52.30
55064;DHT22;40963;52.168;21.296;2022-07-19T13:12:53;27.40;51.90
55064;DHT22;40963;52.168;21.296;2022-07-19T13:15:19;27.50;51.90
55064;DHT22;40963;52.168;21.296;2022-07-19T13:17:45;27.60;51.70
55064;DHT22;40963;52.168;21.296;2022-07-19T13:20:13;27.70;51.60
55064;DHT22;40963;52.168;21.296;2022-07-19T13:22:40;27.70;51.60
55064;DHT22;40963;52.168;21.296;2022-07-19T13:25:07;27.70;52.00
55064;DHT22;40963;52.168;21.296;2022-07-19T13:27:33;27.70;51.70
55064;DHT22;40963;52.168;21.296;2022-07-19T13:29:59;27.70;51.20
55064;DHT22;40963;52.168;21.296;2022-07-19T13:32:25;27.60;50.90
55064;DHT22;40963;52.168;21.296;2022-07-19T13:34:53;27.60;50.70
55064;DHT22;40963;52.168;21.296;2022-07-19T13:37:19;27.50;50.60
55064;DHT22;40963;52.168;21.296;2022-07-19T13:39:44;27.50;50.80
55064;DHT22;40963;52.168;21.296;2022-07-19T13:42:10;27.60;50.60
55064;DHT22;40963;52.168;21.296;2022-07-19T13:44:36;27.70;50.50
55064;DHT22;40963;52.168;21.296;2022-07-19T13:47:01;27.80;50.40
55064;DHT22;40963;52.168;21.296;2022-07-19T13:49:27;28.00;50.90
55064;DHT22;40963;52.168;21.296;2022-07-19T13:51:53;28.10;51.20
55064;DHT22;40963;52.168;21.296;2022-07-19T13:54:19;28.10;50.00
55064;DHT22;40963;52.168;21.296;2022-07-19T13:56:45;28.10;49.60
55064;DHT22;40963;52.168;21.296;2022-07-19T13:59:11;28.00;49.50
55064;DHT22;40963;52.168;21.296;2022-07-19T14:01:36;28.00;49.30
55064;DHT22;40963;52.168;21.296;2022-07-19T14:04:02;27.90;49.20
55064;DHT22;40963;52.168;21.296;2022-07-19T14:06:28;27.80;49.30
55064;DHT22;40963;52.168;21.296;2022-07-19T14:08:54;27.90;50.50
55064;DHT22;40963;52.168;21.296;2022-07-19T14:11:20;27.80;51.20
55064;DHT22;40963;52.168;21.296;2022-07-19T14:13:46;27.80;50.90
55064;DHT22;40963;52.168;21.296;2022-07-19T14:16:12;27.80;50.40
55064;DHT22;40963;52.168;21.296;2022-07-19T14:18:38;27.80;50.00
55064;DHT22;40963;52.168;21.296;2022-07-19T14:21:03;27.80;50.10
55064;DHT22;40963;52.168;21.296;2022-07-19T14:23:29;27.80;49.70
55064;DHT22;40963;52.168;21.296;2022-07-19T14:25:55;27.90;49.80
55064;DHT22;40963;52.168;21.296;2022-07-19T14:28:22;27.90;50.20
55064;DHT22;40963;52.168;21.296;2022-07-19T14:30:47;27.90;50.10
55064;DHT22;40963;52.168;21.296;2022-07-19T14:33:13;27.90;49.70
55064;DHT22;40963;52.168;21.296;2022-07-19T14:35:39;27.90;49.70
55064;DHT22;40963;52.168;21.296;2022-07-19T14:38:04;27.90;49.70
55064;DHT22;40963;52.168;21.296;2022-07-19T14:40:30;27.90;48.90
55064;DHT22;40963;52.168;21.296;2022-07-19T14:42:56;27.90;48.80
55064;DHT22;40963;52.168;21.296;2022-07-19T14:45:22;28.00;48.90
55064;DHT22;40963;52.168;21.296;2022-07-19T14:47:48;28.10;48.40
55064;DHT22;40963;52.168;21.296;2022-07-19T14:50:14;28.10;48.20
55064;DHT22;40963;52.168;21.296;2022-07-19T14:52:39;28.20;48.40
55064;DHT22;40963;52.168;21.296;2022-07-19T14:55:06;28.40;48.00
55064;DHT22;40963;52.168;21.296;2022-07-19T14:57:32;28.50;48.00
55064;DHT22;40963;52.168;21.296;2022-07-19T14:59:58;28.50;47.80
55064;DHT22;40963;52.168;21.296;2022-07-19T15:02:24;28.50;47.80
55064;DHT22;40963;52.168;21.296;2022-07-19T15:04:50;28.50;47.90
55064;DHT22;40963;52.168;21.296;2022-07-19T15:07:16;28.40;47.90
55064;DHT22;40963;52.168;21.296;2022-07-19T15:09:42;28.40;48.30
55064;DHT22;40963;52.168;21.296;2022-07-19T15:12:08;28.40;48.90
55064;DHT22;40963;52.168;21.296;2022-07-19T15:14:34;28.30;48.50
55064;DHT22;40963;52.168;21.296;2022-07-19T15:17:01;28.30;48.80
55064;DHT22;40963;52.168;21.296;2022-07-19T15:19:27;28.30;49.00
55064;DHT22;40963;52.168;21.296;2022-07-19T15:21:54;28.20;49.20
55064;DHT22;40963;52.168;21.296;2022-07-19T15:24:20;28.10;49.70
55064;DHT22;40963;52.168;21.296;2022-07-19T15:26:46;28.00;49.90
55064;DHT22;40963;52.168;21.296;2022-07-19T15:29:13;27.90;49.60